Time;durP1;ratioP1;P1;durP2;ratioP2;P2;SDS_P1;SDS_P2;PMS_P1;PMS_P2;Temp;Humidity;BMP_temperature;BMP_pressure;BME280_temperature;BME280_humidity;BME280_pressure;Samples;Min_cycle;Max_cycle;Signal;HPM_P1;HPM_P2
2021/03/20 00:01:05;;;;;;;4.00;3.70;;;6.50;56.10;;;;;;5099224;28;21176;-49
2021/03/20 00:03:32;;;;;;;4.53;4.13;;;6.50;56.60;;;;;;5083000;28;21246;-48
2021/03/20 00:05:59;;;;;;;5.47;4.97;;;6.50;56.30;;;;;;5103159;28;20668;-49
2021/03/20 00:08:26;;;;;;;5.60;4.30;;;6.50;56.50;;;;;;5083766;28;20688;-50
2021/03/20 00:10:53;;;;;;;7.07;4.27;;;6.50;56.60;;;;;;5101107;28;20684;-49
2021/03/20 00:13:21;;;;;;;4.83;4.10;;;6.50;56.80;;;;;;5103192;28;20647;-50
2021/03/20 00:15:48;;;;;;;6.30;4.30;;;6.50;57.00;;;;;;5101400;28;20626;-50
2021/03/20 00:18:16;;;;;;;5.40;4.57;;;6.50;57.10;;;;;;5094913;28;20620;-48
2021/03/20 00:20:43;;;;;;;4.97;4.30;;;6.50;57.10;;;;;;5096023;28;20639;-49
2021/03/20 00:23:10;;;;;;;6.27;5.67;;;6.40;57.30;;;;;;5092683;28;20652;-49
2021/03/20 00:25:37;;;;;;;6.77;4.90;;;6.40;57.40;;;;;;5092321;28;20628;-48
2021/03/20 00:28:05;;;;;;;5.57;5.07;;;6.40;57.40;;;;;;5092646;28;20652;-49
2021/03/20 00:30:31;;;;;;;6.20;5.17;;;6.40;57.60;;;;;;5091270;28;20654;-49
2021/03/20 00:32:58;;;;;;;7.37;5.37;;;6.40;57.90;;;;;;5091453;28;20718;-51
2021/03/20 00:35:26;;;;;;;6.07;5.57;;;6.30;58.00;;;;;;5092085;28;20624;-49
2021/03/20 00:37:53;;;;;;;5.20;4.70;;;6.30;58.20;;;;;;5090848;28;20675;-49
2021/03/20 00:40:22;;;;;;;5.70;5.20;;;6.20;58.40;;;;;;5091995;28;20628;-48
2021/03/20 00:42:49;;;;;;;6.70;5.40;;;6.20;58.50;;;;;;5089720;28;20701;-49
2021/03/20 00:45:16;;;;;;;7.20;5.27;;;6.30;58.50;;;;;;5092834;28;20625;-49
2021/03/20 00:47:43;;;;;;;6.13;5.47;;;6.20;58.60;;;;;;5091521;28;20652;-49
2021/03/20 00:50:11;;;;;;;5.87;5.40;;;6.20;59.00;;;;;;5093231;28;20685;-49
2021/03/20 00:52:40;;;;;;;5.63;5.13;;;6.20;59.10;;;;;;5091052;28;21450;-49
2021/03/20 00:55:08;;;;;;;7.83;5.37;;;6.20;58.90;;;;;;5092093;28;21027;-48
2021/03/20 00:57:34;;;;;;;6.23;5.63;;;6.30;59.10;;;;;;5091615;28;20971;-49
2021/03/20 01:00:02;;;;;;;6.97;4.70;;;6.30;59.10;;;;;;5091672;28;20628;-49
2021/03/20 01:02:28;;;;;;;6.63;5.60;;;6.30;58.90;;;;;;5091585;28;20737;-49
2021/03/20 01:04:55;;;;;;;6.20;5.33;;;6.30;58.70;;;;;;5083413;28;20636;-49
2021/03/20 01:07:22;;;;;;;5.63;4.83;;;6.20;58.70;;;;;;5098625;28;20660;-48
2021/03/20 01:09:50;;;;;;;5.00;4.50;;;6.20;58.80;;;;;;5090962;28;20620;-49
2021/03/20 01:12:16;;;;;;;7.30;5.70;;;6.10;58.90;;;;;;5089312;28;20784;-50
2021/03/20 01:14:43;;;;;;;6.63;5.97;;;6.10;59.10;;;;;;5091312;28;20620;-49
2021/03/20 01:17:10;;;;;;;4.60;4.20;;;6.10;59.10;;;;;;5072915;28;21020;-49
2021/03/20 01:19:37;;;;;;;7.17;5.60;;;6.10;59.10;;;;;;5090012;28;21079;-48
2021/03/20 01:22:03;;;;;;;5.80;4.67;;;6.00;60.00;;;;;;5089904;28;20637;-49
2021/03/20 01:24:30;;;;;;;6.20;5.37;;;6.10;63.00;;;;;;5091723;28;20628;-50
2021/03/20 01:26:58;;;;;;;5.97;5.33;;;6.10;64.00;;;;;;5092080;28;20709;-49
2021/03/20 01:29:25;;;;;;;7.27;5.90;;;6.10;63.00;;;;;;5091138;28;20697;-50
2021/03/20 01:31:53;;;;;;;5.27;4.77;;;6.10;63.90;;;;;;5091499;28;20616;-50
2021/03/20 01:34:20;;;;;;;5.43;4.93;;;6.20;65.00;;;;;;5091209;28;20705;-50
2021/03/20 01:36:47;;;;;;;6.00;5.50;;;6.20;66.40;;;;;;5092014;28;20636;-49
2021/03/20 01:39:14;;;;;;;4.87;4.40;;;6.30;66.60;;;;;;5091820;28;20652;-50
2021/03/20 01:41:41;;;;;;;6.43;5.23;;;6.40;64.60;;;;;;5092336;28;20620;-49
2021/03/20 01:44:14;;;;;;;5.23;4.73;;;6.40;63.50;;;;;;5091515;28;21269;-50
2021/03/20 01:46:44;;;;;;;7.30;4.80;;;6.40;62.40;;;;;;5089836;28;20628;-49
2021/03/20 01:49:16;;;;;;;6.07;5.50;;;6.40;61.70;;;;;;5091140;28;20730;-50
2021/03/20 01:51:43;;;;;;;5.73;5.23;;;6.40;60.30;;;;;;5090985;28;20982;-49
2021/03/20 01:54:10;;;;;;;4.87;4.37;;;6.30;59.70;;;;;;5091544;28;20656;-50
2021/03/20 01:56:40;;;;;;;5.73;5.13;;;6.30;59.40;;;;;;5088046;28;20683;-50
2021/03/20 01:59:07;;;;;;;8.03;4.43;;;6.20;59.40;;;;;;5090283;28;20657;-49
2021/03/20 02:01:35;;;;;;;5.50;5.00;;;6.20;59.30;;;;;;5088429;28;20636;-50
2021/03/20 02:04:03;;;;;;;6.53;4.80;;;6.20;59.40;;;;;;5092295;28;20680;-50
2021/03/20 02:06:30;;;;;;;5.97;5.37;;;6.10;59.60;;;;;;5091612;28;20666;-50
2021/03/20 02:08:59;;;;;;;12.53;6.63;;;6.10;59.80;;;;;;5089942;28;20667;-50
2021/03/20 02:11:27;;;;;;;5.80;5.03;;;6.10;59.80;;;;;;5085584;28;21161;-49
2021/03/20 02:13:57;;;;;;;8.50;5.17;;;6.00;59.90;;;;;;5070635;28;20657;-50
2021/03/20 02:16:26;;;;;;;5.77;5.13;;;6.00;59.80;;;;;;5077759;28;20625;-50
2021/03/20 02:18:57;;;;;;;6.90;6.23;;;6.00;60.80;;;;;;5085337;28;20621;-50
2021/03/20 02:21:24;;;;;;;5.70;5.20;;;6.00;60.50;;;;;;5091460;28;20632;-50
2021/03/20 02:24:33;;;;;;;4.87;4.43;;;6.00;60.60;;;;;;5091377;28;20652;-50
2021/03/20 02:27:15;;;;;;;5.23;4.60;;;6.00;60.50;;;;;;5090964;28;20652;-50
2021/03/20 02:30:06;;;;;;;4.57;4.17;;;6.00;60.80;;;;;;5089584;28;21208;-49
2021/03/20 02:32:51;;;;;;;4.50;4.00;;;6.00;60.90;;;;;;5070797;28;21154;-49
2021/03/20 02:35:24;;;;;;;4.10;3.70;;;6.00;60.70;;;;;;5068522;28;20636;-49
2021/03/20 02:37:54;;;;;;;4.57;4.17;;;6.00;60.60;;;;;;5080904;28;20661;-48
2021/03/20 02:40:23;;;;;;;5.20;4.70;;;6.00;60.90;;;;;;5090570;28;20658;-48
2021/03/20 02:42:53;;;;;;;4.83;4.43;;;6.00;61.20;;;;;;5091001;28;20690;-47
2021/03/20 02:45:22;;;;;;;4.50;4.10;;;6.00;60.90;;;;;;5088707;28;20693;-47
2021/03/20 02:47:52;;;;;;;4.10;3.70;;;5.90;60.70;;;;;;5090377;28;20656;-48
2021/03/20 02:50:20;;;;;;;5.37;4.87;;;5.90;60.80;;;;;;5073089;28;20621;-48
2021/03/20 02:52:48;;;;;;;5.03;4.63;;;6.00;60.80;;;;;;5070238;28;20722;-48
2021/03/20 02:55:18;;;;;;;4.70;3.93;;;5.90;60.70;;;;;;5070634;28;20682;-48
2021/03/20 02:57:46;;;;;;;6.70;4.80;;;5.90;60.50;;;;;;5077163;28;20678;-49
2021/03/20 03:00:16;;;;;;;4.93;3.90;;;6.00;60.60;;;;;;5075768;28;21202;-48
2021/03/20 03:02:43;;;;;;;5.73;5.13;;;6.00;60.70;;;;;;5070619;28;20997;-48
2021/03/20 03:05:13;;;;;;;5.93;4.87;;;6.00;60.90;;;;;;5070577;28;21217;-49
2021/03/20 03:07:42;;;;;;;4.97;4.57;;;6.00;60.60;;;;;;5079021;28;21022;-48
2021/03/20 03:10:10;;;;;;;6.27;4.87;;;6.00;60.70;;;;;;5090531;28;20616;-48
2021/03/20 03:12:39;;;;;;;5.43;4.93;;;6.00;60.70;;;;;;5090362;28;20733;-49
2021/03/20 03:15:08;;;;;;;4.90;4.50;;;5.90;60.60;;;;;;5090146;28;20685;-48
2021/03/20 03:17:35;;;;;;;4.60;4.20;;;6.00;60.60;;;;;;5090643;28;21031;-48
2021/03/20 03:20:05;;;;;;;4.10;3.70;;;5.90;60.50;;;;;;5093573;28;20678;-47
2021/03/20 03:22:42;;;;;;;5.30;3.53;;;5.90;60.50;;;;;;5087969;28;20652;-48
2021/03/20 03:25:10;;;;;;;5.03;4.40;;;5.90;60.60;;;;;;5074458;28;20660;-49
2021/03/20 03:27:38;;;;;;;4.60;4.20;;;5.90;60.80;;;;;;5084296;28;20702;-48
2021/03/20 03:30:07;;;;;;;4.73;4.13;;;5.80;60.70;;;;;;5094996;28;20214;-49
2021/03/20 03:32:34;;;;;;;6.47;3.90;;;5.80;60.70;;;;;;5094557;28;20667;-49
2021/03/20 03:35:04;;;;;;;3.73;3.43;;;5.80;60.90;;;;;;5094645;28;20628;-48
2021/03/20 03:37:35;;;;;;;4.87;3.87;;;5.80;61.20;;;;;;5094473;28;20620;-50
2021/03/20 03:40:05;;;;;;;4.90;4.40;;;5.80;61.30;;;;;;5094472;28;20656;-50
2021/03/20 03:42:32;;;;;;;4.47;4.07;;;5.80;61.10;;;;;;5094756;28;20708;-50
2021/03/20 03:44:59;;;;;;;4.37;3.40;;;5.70;60.90;;;;;;5092674;28;20624;-49
2021/03/20 03:47:27;;;;;;;3.85;3.50;;;5.70;60.90;;;;;;5091975;28;20725;-49
2021/03/20 03:49:54;;;;;;;4.37;4.03;;;5.70;60.90;;;;;;5093996;28;20683;-49
2021/03/20 03:52:21;;;;;;;3.72;3.42;;;5.60;61.00;;;;;;5094389;28;20716;-48
2021/03/20 03:54:49;;;;;;;5.40;4.63;;;5.60;61.20;;;;;;5093935;28;20199;-48
2021/03/20 03:57:38;;;;;;;4.90;4.25;;;5.50;61.20;;;;;;5093611;28;20210;-49
2021/03/20 04:00:10;;;;;;;3.90;3.57;;;5.50;61.40;;;;;;5080779;28;20203;-51
2021/03/20 04:02:59;;;;;;;4.22;3.45;;;5.50;61.70;;;;;;5083964;28;20656;-49
2021/03/20 04:05:28;;;;;;;4.20;3.80;;;5.50;61.90;;;;;;5093514;28;20205;-49
2021/03/20 04:08:02;;;;;;;3.63;3.10;;;5.50;62.00;;;;;;5089672;28;20702;-50
2021/03/20 04:10:32;;;;;;;4.80;4.15;;;5.40;62.20;;;;;;5072043;28;20670;-48
2021/03/20 04:13:04;;;;;;;4.90;4.50;;;5.40;62.60;;;;;;5075357;28;20324;-49
2021/03/20 04:15:42;;;;;;;4.35;3.95;;;5.40;62.50;;;;;;5080598;28;20624;-49
2021/03/20 04:18:14;;;;;;;4.30;3.90;;;5.40;62.50;;;;;;5093033;28;20194;-50
2021/03/20 04:20:44;;;;;;;4.00;3.60;;;5.40;62.80;;;;;;5094032;28;20628;-51
2021/03/20 04:23:13;;;;;;;5.97;3.80;;;5.30;63.00;;;;;;5093609;28;20667;-51
2021/03/20 04:25:46;;;;;;;4.75;3.55;;;5.30;63.10;;;;;;5093106;28;20672;-51
2021/03/20 04:28:22;;;;;;;4.15;3.75;;;5.30;62.90;;;;;;5092478;28;20259;-51
2021/03/20 04:30:50;;;;;;;5.20;4.17;;;5.40;62.90;;;;;;5084873;28;20540;-50
2021/03/20 04:33:21;;;;;;;3.72;3.40;;;5.40;63.50;;;;;;5073202;28;20782;-51
2021/03/20 04:35:50;;;;;;;5.70;3.80;;;5.30;62.80;;;;;;5077343;28;20199;-49
2021/03/20 04:38:17;;;;;;;4.80;4.40;;;5.30;62.80;;;;;;5083271;28;21204;-49
2021/03/20 04:40:46;;;;;;;4.13;3.53;;;5.30;62.50;;;;;;5092963;28;21106;-49
2021/03/20 04:43:15;;;;;;;4.13;3.72;;;5.30;62.60;;;;;;5093266;28;20644;-51
2021/03/20 04:45:42;;;;;;;3.75;3.35;;;5.30;62.40;;;;;;5088498;28;20197;-50
2021/03/20 04:48:14;;;;;;;4.95;4.00;;;5.30;61.50;;;;;;5086906;28;20219;-50
2021/03/20 04:50:41;;;;;;;2.67;2.42;;;5.20;60.40;;;;;;5073179;28;20263;-50
2021/03/20 04:53:07;;;;;;;5.13;3.60;;;5.20;60.00;;;;;;5074984;28;20217;-51
2021/03/20 04:55:34;;;;;;;3.75;2.92;;;5.20;59.90;;;;;;5092945;28;20212;-49
2021/03/20 04:58:05;;;;;;;3.58;3.28;;;5.20;59.80;;;;;;5091590;28;20206;-50
2021/03/20 05:00:34;;;;;;;3.97;3.20;;;5.10;59.40;;;;;;5081830;28;20230;-48
2021/03/20 05:03:05;;;;;;;4.53;3.37;;;5.10;59.50;;;;;;5072492;28;20219;-48
2021/03/20 05:05:32;;;;;;;3.97;3.58;;;5.10;60.10;;;;;;5074257;28;21187;-48
2021/03/20 05:08:00;;;;;;;6.50;3.60;;;5.10;59.90;;;;;;5082503;28;20617;-50
2021/03/20 05:10:29;;;;;;;3.50;3.15;;;5.10;59.80;;;;;;5072415;28;20290;-50
2021/03/20 05:12:56;;;;;;;3.53;2.80;;;5.10;59.40;;;;;;5072174;28;20636;-50
2021/03/20 05:15:27;;;;;;;3.38;2.95;;;5.00;58.90;;;;;;5079163;28;20206;-50
2021/03/20 05:17:53;;;;;;;2.40;2.30;;;5.00;58.50;;;;;;5091631;28;20674;-50
2021/03/20 05:20:20;;;;;;;4.35;2.47;;;5.00;58.10;;;;;;5092604;28;20255;-49
2021/03/20 05:22:48;;;;;;;4.28;3.17;;;5.00;58.10;;;;;;5092368;28;20290;-49
2021/03/20 05:25:15;;;;;;;2.45;2.08;;;4.90;57.80;;;;;;5092329;28;20217;-50
2021/03/20 05:27:42;;;;;;;3.42;3.15;;;4.90;57.30;;;;;;5091632;28;20258;-49
2021/03/20 05:30:10;;;;;;;3.15;2.60;;;4.90;56.90;;;;;;5088955;28;20221;-50
2021/03/20 05:32:37;;;;;;;3.20;2.53;;;4.90;56.70;;;;;;5084361;28;20618;-50
2021/03/20 05:35:07;;;;;;;3.63;2.45;;;4.90;56.60;;;;;;5074863;28;20247;-49
2021/03/20 05:37:35;;;;;;;4.22;2.40;;;4.90;56.50;;;;;;5091044;28;20193;-49
2021/03/20 05:40:03;;;;;;;3.05;2.33;;;4.80;56.30;;;;;;5090715;28;20214;-49
2021/03/20 05:42:36;;;;;;;2.10;1.88;;;4.80;56.10;;;;;;5091822;28;20260;-49
2021/03/20 05:45:22;;;;;;;3.40;2.45;;;4.80;56.30;;;;;;5089611;28;20568;-49
2021/03/20 05:47:58;;;;;;;2.58;2.25;;;4.80;56.30;;;;;;5087853;28;20205;-49
2021/03/20 05:50:32;;;;;;;3.88;2.75;;;4.70;56.30;;;;;;5077919;28;20697;-49
2021/03/20 05:53:23;;;;;;;3.05;2.65;;;4.70;56.40;;;;;;5081866;28;20223;-48
2021/03/20 05:55:53;;;;;;;3.40;3.10;;;4.70;56.70;;;;;;5084816;28;20755;-49
2021/03/20 05:58:33;;;;;;;3.10;2.80;;;4.70;56.90;;;;;;5080747;28;20198;-49
2021/03/20 06:01:03;;;;;;;3.55;2.60;;;4.80;56.70;;;;;;5071319;28;20252;-49
2021/03/20 06:04:01;;;;;;;2.17;1.95;;;4.80;56.60;;;;;;5091409;28;20281;-49
2021/03/20 06:06:48;;;;;;;3.50;2.42;;;4.80;56.50;;;;;;5071104;28;20207;-50
2021/03/20 06:09:23;;;;;;;3.80;2.13;;;4.90;56.40;;;;;;5067564;28;20265;-49
2021/03/20 06:11:59;;;;;;;2.33;2.13;;;4.90;56.30;;;;;;5071486;28;20632;-50
2021/03/20 06:14:34;;;;;;;4.35;2.75;;;4.90;56.60;;;;;;5087960;28;20232;-48
2021/03/20 06:17:09;;;;;;;2.37;2.17;;;4.90;57.40;;;;;;5091565;28;20217;-48
2021/03/20 06:19:46;;;;;;;2.70;2.50;;;5.00;56.60;;;;;;5090761;28;20669;-49
2021/03/20 06:22:25;;;;;;;3.15;2.45;;;5.00;56.30;;;;;;5091937;28;20600;-49
2021/03/20 06:25:09;;;;;;;4.50;2.40;;;5.00;56.10;;;;;;5090995;28;20618;-49
2021/03/20 06:27:38;;;;;;;4.67;2.63;;;5.00;55.70;;;;;;5090730;28;20689;-49
2021/03/20 06:30:08;;;;;;;2.00;1.63;;;5.00;55.90;;;;;;5090847;28;21196;-49
2021/03/20 06:32:37;;;;;;;1.33;1.23;;;5.00;55.20;;;;;;5090466;28;20783;-49
2021/03/20 06:35:07;;;;;;;3.38;1.90;;;5.10;54.20;;;;;;5090998;28;20210;-48
2021/03/20 06:37:37;;;;;;;5.97;2.07;;;5.10;53.70;;;;;;5090750;28;20248;-49
2021/03/20 06:40:05;;;;;;;2.80;2.13;;;5.20;52.80;;;;;;5090947;28;20666;-50
2021/03/20 06:42:33;;;;;;;2.00;1.80;;;5.20;52.50;;;;;;5090802;28;20644;-50
2021/03/20 06:45:01;;;;;;;1.33;1.23;;;5.30;52.60;;;;;;5091206;28;20624;-49
2021/03/20 06:47:29;;;;;;;3.13;1.70;;;5.30;51.60;;;;;;5090622;28;20681;-49
2021/03/20 06:49:58;;;;;;;4.33;2.10;;;5.30;51.20;;;;;;5090125;28;20644;-49
2021/03/20 06:52:26;;;;;;;1.53;1.43;;;5.30;51.00;;;;;;5094776;28;21288;-49
2021/03/20 06:54:55;;;;;;;2.23;1.70;;;5.40;50.80;;;;;;5097696;28;20669;-49
2021/03/20 06:57:22;;;;;;;3.40;1.77;;;5.50;50.50;;;;;;5096806;28;20693;-49
2021/03/20 06:59:48;;;;;;;1.83;1.30;;;5.60;50.10;;;;;;5097731;28;20620;-49
2021/03/20 07:02:21;;;;;;;1.60;1.50;;;5.80;50.00;;;;;;5097492;28;20678;-49
2021/03/20 07:05:03;;;;;;;2.40;1.37;;;6.00;48.90;;;;;;5097572;28;20612;-50
2021/03/20 07:07:40;;;;;;;3.67;2.40;;;6.20;48.20;;;;;;5097664;28;20631;-49
2021/03/20 07:10:11;;;;;;;2.57;1.53;;;6.50;48.10;;;;;;5097081;28;20719;-49
2021/03/20 07:12:39;;;;;;;4.00;2.27;;;6.60;48.00;;;;;;5096426;28;21245;-49
2021/03/20 07:15:08;;;;;;;2.70;1.50;;;6.80;47.00;;;;;;5096095;28;20726;-48
2021/03/20 07:17:37;;;;;;;1.33;1.20;;;7.00;46.60;;;;;;5096230;28;20646;-51
2021/03/20 07:20:08;;;;;;;2.70;1.90;;;7.20;45.90;;;;;;5097449;28;20612;-49
2021/03/20 07:22:36;;;;;;;3.67;1.47;;;7.50;44.70;;;;;;5097210;28;20716;-49
2021/03/20 07:25:22;;;;;;;3.07;2.00;;;7.60;43.90;;;;;;5097526;28;20631;-48
2021/03/20 07:27:49;;;;;;;4.63;2.00;;;7.70;43.30;;;;;;5097555;28;20732;-50
2021/03/20 07:30:29;;;;;;;2.33;1.50;;;7.90;43.40;;;;;;5096637;28;20624;-50
2021/03/20 07:32:56;;;;;;;1.63;1.50;;;8.00;43.10;;;;;;5097299;28;21003;-49
2021/03/20 07:35:31;;;;;;;1.27;1.17;;;8.20;42.60;;;;;;5097424;28;21192;-49
2021/03/20 07:38:12;;;;;;;1.67;1.40;;;8.30;41.80;;;;;;5096438;28;20615;-49
2021/03/20 07:40:39;;;;;;;1.50;1.30;;;8.30;41.20;;;;;;5096824;28;21225;-49
2021/03/20 07:43:17;;;;;;;2.40;1.67;;;8.40;41.30;;;;;;5097935;28;20640;-49
2021/03/20 07:45:44;;;;;;;3.07;1.50;;;8.60;40.80;;;;;;5097016;28;20625;-49
2021/03/20 07:48:21;;;;;;;2.23;1.10;;;8.80;39.80;;;;;;5096055;28;20977;-48
2021/03/20 07:51:00;;;;;;;2.37;1.50;;;9.00;38.40;;;;;;5097059;28;20627;-48
2021/03/20 07:53:27;;;;;;;2.17;1.67;;;9.00;38.60;;;;;;5094306;28;20647;-48
2021/03/20 07:56:04;;;;;;;2.17;1.50;;;9.00;37.80;;;;;;5097655;28;20620;-48
2021/03/20 07:58:41;;;;;;;1.60;1.50;;;8.90;36.70;;;;;;5090866;28;20616;-49
2021/03/20 08:01:12;;;;;;;1.57;1.47;;;8.70;36.60;;;;;;5093414;28;20615;-49
2021/03/20 08:03:54;;;;;;;2.70;1.53;;;8.60;36.40;;;;;;5088767;28;21223;-49
2021/03/20 08:06:22;;;;;;;1.77;1.00;;;8.50;36.00;;;;;;5078816;28;21160;-49
2021/03/20 08:08:49;;;;;;;2.37;1.43;;;8.50;34.70;;;;;;5073955;28;21062;-49
2021/03/20 08:11:29;;;;;;;1.20;1.00;;;8.60;34.70;;;;;;5093302;28;20685;-49
2021/03/20 08:13:58;;;;;;;3.03;1.93;;;8.80;33.70;;;;;;5093327;28;20652;-48
2021/03/20 08:16:25;;;;;;;2.83;1.33;;;8.90;33.10;;;;;;5093501;28;21252;-49
2021/03/20 08:18:53;;;;;;;1.10;1.07;;;8.90;33.50;;;;;;5090449;28;20693;-51
2021/03/20 08:21:43;;;;;;;3.10;1.80;;;9.00;33.30;;;;;;5084586;28;20629;-50
2021/03/20 08:24:30;;;;;;;2.40;1.50;;;9.10;33.40;;;;;;5063799;28;21219;-49
2021/03/20 08:27:08;;;;;;;4.90;1.60;;;9.20;32.20;;;;;;5092818;28;20635;-49
2021/03/20 08:29:50;;;;;;;1.63;1.10;;;9.40;32.50;;;;;;5080902;28;20858;-49
2021/03/20 08:32:23;;;;;;;1.00;0.90;;;9.70;32.40;;;;;;5093214;28;20620;-49
2021/03/20 08:34:56;;;;;;;2.10;1.57;;;9.90;30.40;;;;;;5093259;28;20624;-50
2021/03/20 08:37:38;;;;;;;1.97;1.10;;;10.00;29.40;;;;;;5092479;28;20681;-49
2021/03/20 08:40:19;;;;;;;1.30;1.20;;;10.00;29.20;;;;;;5091766;28;20847;-49
2021/03/20 08:42:58;;;;;;;2.50;1.70;;;10.10;29.00;;;;;;5070477;28;20710;-49
2021/03/20 08:45:27;;;;;;;1.47;1.20;;;10.10;29.00;;;;;;5070957;28;20674;-50
2021/03/20 08:48:08;;;;;;;1.73;1.63;;;10.00;29.30;;;;;;5070418;28;20762;-49
2021/03/20 08:50:40;;;;;;;1.90;1.57;;;9.90;29.60;;;;;;5088509;28;20612;-49
2021/03/20 08:53:09;;;;;;;1.43;1.20;;;9.80;29.60;;;;;;5092646;28;20644;-51
2021/03/20 08:55:45;;;;;;;1.57;1.47;;;9.80;29.70;;;;;;5091949;28;21177;-50
2021/03/20 08:58:21;;;;;;;1.70;1.60;;;9.90;30.00;;;;;;5087629;28;20677;-50
2021/03/20 09:00:51;;;;;;;1.20;1.10;;;10.10;29.70;;;;;;5092355;28;20685;-50
2021/03/20 09:03:19;;;;;;;3.73;1.70;;;10.20;29.00;;;;;;5090094;28;20729;-50
2021/03/20 09:05:47;;;;;;;2.00;1.20;;;10.30;28.40;;;;;;5077752;28;20687;-50
2021/03/20 09:08:16;;;;;;;1.83;1.40;;;10.40;28.10;;;;;;5071691;28;20617;-50
2021/03/20 09:10:45;;;;;;;2.33;1.67;;;10.40;28.10;;;;;;5087902;28;20628;-49
2021/03/20 09:13:18;;;;;;;1.67;1.50;;;10.50;27.90;;;;;;5092619;28;20777;-50
2021/03/20 09:15:47;;;;;;;1.93;1.73;;;10.50;28.10;;;;;;5091686;28;20620;-49
2021/03/20 09:18:14;;;;;;;2.13;1.97;;;10.60;28.60;;;;;;5091478;28;20624;-50
2021/03/20 09:20:43;;;;;;;2.23;1.00;;;10.70;28.50;;;;;;5091441;28;20632;-49
2021/03/20 09:23:34;;;;;;;3.80;1.40;;;10.60;27.90;;;;;;5089947;28;20661;-50
2021/03/20 09:26:02;;;;;;;1.73;1.60;;;10.50;28.30;;;;;;5089746;28;20681;-49
2021/03/20 09:29:10;;;;;;;4.10;2.60;;;10.40;28.60;;;;;;5090769;28;21266;-49
2021/03/20 09:32:03;;;;;;;2.53;1.27;;;10.50;28.30;;;;;;5092136;28;20975;-51
2021/03/20 09:34:37;;;;;;;2.23;1.83;;;10.60;27.80;;;;;;5087398;28;21205;-50
2021/03/20 09:37:06;;;;;;;1.23;1.13;;;10.60;26.70;;;;;;5090117;28;20703;-50
2021/03/20 09:39:51;;;;;;;1.27;1.10;;;10.60;26.40;;;;;;5090705;28;21172;-51
2021/03/20 09:42:32;;;;;;;1.83;1.53;;;10.60;26.30;;;;;;5085060;28;20625;-50
2021/03/20 09:45:00;;;;;;;1.30;1.20;;;10.60;25.80;;;;;;5087896;28;20628;-50
2021/03/20 09:47:34;;;;;;;1.40;1.30;;;10.60;25.80;;;;;;5089606;28;20682;-50
2021/03/20 09:50:03;;;;;;;1.50;1.40;;;10.70;26.10;;;;;;5086735;28;20651;-49
2021/03/20 09:52:40;;;;;;;2.03;1.10;;;10.80;24.80;;;;;;5086253;28;20686;-50
2021/03/20 09:55:44;;;;;;;0.80;0.73;;;10.80;24.70;;;;;;5089565;28;20608;-50
2021/03/20 09:58:36;;;;;;;1.70;1.60;;;10.80;24.40;;;;;;5098337;28;20627;-49
2021/03/20 10:01:20;;;;;;;2.50;2.30;;;10.80;24.30;;;;;;5071289;28;20617;-50
2021/03/20 10:04:26;;;;;;;2.00;1.00;;;10.90;24.50;;;;;;5074383;28;20646;-50
2021/03/20 10:07:29;;;;;;;2.03;1.93;;;11.30;24.40;;;;;;5090367;28;20661;-52
2021/03/20 10:09:58;;;;;;;1.90;1.80;;;11.60;23.70;;;;;;5091326;28;20724;-49
2021/03/20 10:12:30;;;;;;;2.63;2.07;;;11.80;24.00;;;;;;5090365;28;20660;-49
2021/03/20 10:15:25;;;;;;;1.90;1.80;;;11.90;24.00;;;;;;5089194;28;20640;-49
2021/03/20 10:18:20;;;;;;;1.47;1.10;;;12.10;22.90;;;;;;5094140;28;20623;-50
2021/03/20 10:20:56;;;;;;;3.33;3.07;;;12.20;22.70;;;;;;5076737;28;21177;-50
2021/03/20 10:23:29;;;;;;;2.87;2.70;;;12.40;23.40;;;;;;5072339;28;20787;-51
2021/03/20 10:25:58;;;;;;;5.07;4.60;;;12.70;23.40;;;;;;5089730;28;20621;-51
2021/03/20 10:28:29;;;;;;;4.60;4.40;;;13.00;23.20;;;;;;5084916;28;21126;-51
2021/03/20 10:30:58;;;;;;;6.10;3.30;;;13.40;23.70;;;;;;5071247;28;20725;-50
2021/03/20 10:33:27;;;;;;;2.60;2.27;;;13.80;23.50;;;;;;5085630;28;20717;-50
2021/03/20 10:36:07;;;;;;;2.43;1.43;;;14.00;22.50;;;;;;5091060;28;20669;-49
2021/03/20 10:38:34;;;;;;;1.20;1.10;;;14.00;22.30;;;;;;5089971;28;21024;-50
2021/03/20 10:41:03;;;;;;;2.20;2.10;;;13.90;22.00;;;;;;5083234;28;21131;-51
2021/03/20 10:43:30;;;;;;;2.57;2.40;;;13.80;21.70;;;;;;5084794;28;21134;-50
2021/03/20 10:45:57;;;;;;;4.90;4.70;;;14.00;21.80;;;;;;5090693;28;20633;-51
2021/03/20 10:48:27;;;;;;;4.30;4.10;;;14.30;22.10;;;;;;5089990;28;20685;-51
2021/03/20 10:50:57;;;;;;;5.00;4.60;;;14.50;21.30;;;;;;5094659;28;20655;-50
2021/03/20 10:53:25;;;;;;;5.27;4.97;;;15.00;21.30;;;;;;5080720;28;20661;-51
2021/03/20 10:55:56;;;;;;;4.03;3.83;;;15.30;21.20;;;;;;5074604;28;20643;-53
2021/03/20 10:58:26;;;;;;;3.17;2.97;;;15.60;20.80;;;;;;5083262;28;20629;-52
2021/03/20 11:00:53;;;;;;;8.93;8.33;;;15.80;20.60;;;;;;5089154;28;20615;-50
2021/03/20 11:03:27;;;;;;;2.63;2.53;;;16.00;20.50;;;;;;5090040;28;20640;-50
2021/03/20 11:05:54;;;;;;;3.77;3.57;;;16.30;20.60;;;;;;5088901;28;21113;-51
2021/03/20 11:08:27;;;;;;;2.10;1.37;;;16.30;20.40;;;;;;5088685;28;20616;-51
2021/03/20 11:11:07;;;;;;;2.03;1.53;;;16.30;20.10;;;;;;5075280;28;20707;-52
2021/03/20 11:13:36;;;;;;;2.50;1.20;;;16.10;20.00;;;;;;5090158;28;20712;-53
2021/03/20 11:16:05;;;;;;;3.77;3.50;;;15.80;20.20;;;;;;5090140;28;21192;-52
2021/03/20 11:18:35;;;;;;;1.73;1.63;;;15.40;20.20;;;;;;5087579;28;21201;-53
2021/03/20 11:21:13;;;;;;;1.93;1.83;;;15.20;20.40;;;;;;5100547;28;20607;-51
2021/03/20 11:23:40;;;;;;;6.13;5.53;;;15.00;20.50;;;;;;5085395;28;20726;-51
2021/03/20 11:26:16;;;;;;;2.90;2.07;;;14.80;20.40;;;;;;5077903;28;21002;-51
2021/03/20 11:28:43;;;;;;;4.50;4.30;;;14.50;20.60;;;;;;5081946;28;21251;-51
2021/03/20 11:31:10;;;;;;;2.63;2.53;;;14.50;20.60;;;;;;5070200;28;20745;-51
2021/03/20 11:33:41;;;;;;;2.40;2.30;;;14.70;20.10;;;;;;5077053;28;21244;-53
2021/03/20 11:36:10;;;;;;;1.70;1.43;;;15.00;20.80;;;;;;5079954;28;21194;-49
2021/03/20 11:38:37;;;;;;;3.07;1.07;;;15.20;21.10;;;;;;5081775;28;20663;-49
2021/03/20 11:41:18;;;;;;;2.30;2.10;;;14.90;20.00;;;;;;5081286;28;20949;-50
2021/03/20 11:43:46;;;;;;;1.60;1.43;;;14.60;20.50;;;;;;5083211;28;20648;-50
2021/03/20 11:46:14;;;;;;;2.47;1.63;;;14.60;20.70;;;;;;5084359;28;20681;-50
2021/03/20 11:48:42;;;;;;;2.87;2.23;;;14.90;20.90;;;;;;5081732;28;21005;-49
2021/03/20 11:51:13;;;;;;;5.10;1.57;;;15.30;21.00;;;;;;5080794;28;20684;-50
2021/03/20 11:53:43;;;;;;;1.97;1.30;;;15.70;20.50;;;;;;5085866;28;20701;-51
2021/03/20 11:56:14;;;;;;;1.27;1.13;;;16.00;20.40;;;;;;5082208;28;20686;-50
2021/03/20 11:58:41;;;;;;;1.37;1.13;;;15.80;20.20;;;;;;5082671;28;20643;-52
2021/03/20 12:01:28;;;;;;;1.80;1.13;;;15.50;20.60;;;;;;5085235;28;20659;-51
2021/03/20 12:03:55;;;;;;;2.13;1.30;;;15.30;20.50;;;;;;5082869;28;21189;-50
2021/03/20 12:06:26;;;;;;;1.60;1.47;;;15.40;20.90;;;;;;5086008;28;20639;-52
2021/03/20 12:08:54;;;;;;;2.80;1.63;;;15.50;20.40;;;;;;5103419;28;20626;-52
2021/03/20 12:11:22;;;;;;;1.50;1.33;;;15.70;20.40;;;;;;5082193;28;20742;-52
2021/03/20 12:13:51;;;;;;;1.87;1.67;;;15.80;20.60;;;;;;5081734;28;20709;-52
2021/03/20 12:16:34;;;;;;;1.37;1.27;;;16.00;19.90;;;;;;5081794;28;20682;-51
2021/03/20 12:19:17;;;;;;;1.80;1.43;;;16.50;20.10;;;;;;5084683;28;22454;-50
2021/03/20 12:22:00;;;;;;;1.70;1.60;;;16.80;20.10;;;;;;5088498;28;21006;-50
2021/03/20 12:24:29;;;;;;;1.57;1.33;;;16.80;20.00;;;;;;5082818;28;20698;-50
2021/03/20 12:26:56;;;;;;;1.97;1.70;;;16.50;19.70;;;;;;5080551;28;20713;-51
2021/03/20 12:29:33;;;;;;;1.60;1.50;;;16.30;19.90;;;;;;5091095;28;20671;-51
2021/03/20 12:32:31;;;;;;;4.57;1.67;;;16.50;20.70;;;;;;5093426;28;20677;-51
2021/03/20 12:35:27;;;;;;;2.20;2.00;;;16.60;19.30;;;;;;5073091;28;20991;-50
2021/03/20 12:38:09;;;;;;;1.73;1.60;;;16.50;19.50;;;;;;5071557;28;20670;-49
2021/03/20 12:40:36;;;;;;;1.17;1.07;;;16.70;19.40;;;;;;5083684;28;20678;-49
2021/03/20 12:43:03;;;;;;;2.07;1.60;;;16.90;19.60;;;;;;5088886;28;20792;-51
2021/03/20 12:45:30;;;;;;;3.17;1.70;;;16.90;19.20;;;;;;5072550;28;20613;-50
2021/03/20 12:48:00;;;;;;;3.70;1.97;;;17.10;19.40;;;;;;5071785;28;20662;-50
2021/03/20 12:50:28;;;;;;;3.33;2.30;;;17.30;19.40;;;;;;5090378;28;21133;-50
2021/03/20 12:52:55;;;;;;;2.70;2.00;;;17.50;19.40;;;;;;5092255;28;21273;-49
2021/03/20 12:55:22;;;;;;;3.73;1.50;;;17.60;19.40;;;;;;5091604;28;20673;-49
2021/03/20 12:57:49;;;;;;;2.87;1.60;;;17.60;19.50;;;;;;5091849;28;20628;-49
2021/03/20 13:00:18;;;;;;;2.60;1.83;;;17.50;19.00;;;;;;5092345;28;20797;-49
2021/03/20 13:02:45;;;;;;;2.17;1.93;;;17.40;18.80;;;;;;5092101;28;20766;-50
2021/03/20 13:05:13;;;;;;;2.77;1.60;;;17.20;18.90;;;;;;5091033;28;20632;-50
2021/03/20 13:07:40;;;;;;;2.10;1.50;;;17.20;19.20;;;;;;5089743;28;20685;-50
2021/03/20 13:10:08;;;;;;;1.83;1.73;;;17.20;19.20;;;;;;5086200;28;20645;-52
2021/03/20 13:12:35;;;;;;;2.90;1.73;;;17.20;18.70;;;;;;5082962;28;21398;-52
2021/03/20 13:15:03;;;;;;;1.67;1.53;;;17.20;19.20;;;;;;5083489;28;20620;-52
2021/03/20 13:17:29;;;;;;;3.40;2.07;;;17.30;18.90;;;;;;5091891;28;20628;-52